Time;durP1;ratioP1;P1;durP2;ratioP2;P2;SDS_P1;SDS_P2;PMS_P1;PMS_P2;Temp;Humidity;BMP_temperature;BMP_pressure;BME280_temperature;BME280_humidity;BME280_pressure;Samples;Min_cycle;Max_cycle;Signal;HPM_P1;HPM_P2
2023/03/22 00:00:34;;;;;;;;;;;;;;;;;;4921194;29;20370;-95
2023/03/22 00:03:00;;;;;;;;;;;;;;;;;;4921223;29;19969;-96
2023/03/22 00:05:26;;;;;;;;;;;;;;;;;;4921032;29;19923;-95
2023/03/22 00:07:56;;;;;;;;;;;;;;;;;;4921016;29;20384;-95
2023/03/22 00:10:24;;;;;;;;;;;;;;;;;;4921275;29;19981;-95
2023/03/22 00:12:50;;;;;;;;;;;;;;;;;;4921014;29;19975;-95
2023/03/22 00:15:16;;;;;;;;;;;;;;;;;;4920651;29;19927;-96
2023/03/22 00:17:43;;;;;;;;;;;;;;;;;;4921227;29;20018;-94
2023/03/22 00:20:10;;;;;;;;;;;;;;;;;;4920693;29;19922;-94
2023/03/22 00:22:36;;;;;;;;;;;;;;;;;;4921212;29;19995;-94
2023/03/22 00:25:02;;;;;;;;;;;;;;;;;;4921059;29;19922;-93
2023/03/22 00:27:28;;;;;;;;;;;;;;;;;;4919889;29;20298;-94
2023/03/22 00:29:54;;;;;;;;;;;;;;;;;;4920704;29;20017;-94
2023/03/22 00:32:20;;;;;;;;;;;;;;;;;;4920808;29;19923;-94
2023/03/22 00:34:46;;;;;;;;;;;;;;;;;;4920339;29;19927;-94
2023/03/22 00:37:12;;;;;;;;;;;;;;;;;;4920886;29;20370;-94
2023/03/22 00:39:38;;;;;;;;;;;;;;;;;;4920538;29;20381;-95
2023/03/22 00:42:05;;;;;;;;;;;;;;;;;;4921022;29;20017;-95
2023/03/22 00:44:31;;;;;;;;;;;;;;;;;;4920403;29;19978;-96
2023/03/22 00:46:56;;;;;;;;;;;;;;;;;;4920029;29;19935;-94
2023/03/22 00:49:24;;;;;;;;;;;;;;;;;;4920327;29;20013;-93
2023/03/22 00:51:50;;;;;;;;;;;;;;;;;;4920547;29;19923;-94
2023/03/22 00:54:16;;;;;;;;;;;;;;;;;;4919537;29;19934;-95
2023/03/22 00:56:44;;;;;;;;;;;;;;;;;;4920188;29;19968;-95
2023/03/22 00:59:10;;;;;;;;;;;;;;;;;;4919819;29;19922;-92
2023/03/22 01:01:36;;;;;;;;;;;;;;;;;;4920178;29;20009;-93
2023/03/22 01:04:01;;;;;;;;;;;;;;;;;;4920001;29;19982;-94
2023/03/22 01:06:27;;;;;;;;;;;;;;;;;;4919406;29;19922;-94
2023/03/22 01:08:54;;;;;;;;;;;;;;;;;;4919907;29;19962;-94
2023/03/22 01:11:19;;;;;;;;;;;;;;;;;;4919976;29;19938;-94
2023/03/22 01:13:46;;;;;;;;;;;;;;;;;;4920206;29;19978;-94
2023/03/22 01:16:12;;;;;;;;;;;;;;;;;;4920183;29;20224;-94
2023/03/22 01:18:38;;;;;;;;;;;;;;;;;;4919946;29;19989;-94
2023/03/22 01:21:05;;;;;;;;;;;;;;;;;;4919760;29;20294;-93
2023/03/22 01:23:31;;;;;;;;;;;;;;;;;;4920150;29;19922;-94
2023/03/22 01:25:57;;;;;;;;;;;;;;;;;;4919862;29;19927;-94
2023/03/22 01:28:22;;;;;;;;;;;;;;;;;;4919923;29;19923;-92
2023/03/22 01:30:49;;;;;;;;;;;;;;;;;;4919860;29;20268;-95
2023/03/22 01:33:15;;;;;;;;;;;;;;;;;;4920109;29;20000;-93
2023/03/22 01:35:41;;;;;;;;;;;;;;;;;;4919547;29;20017;-94
2023/03/22 01:38:07;;;;;;;;;;;;;;;;;;4919777;29;20066;-93
2023/03/22 01:40:33;;;;;;;;;;;;;;;;;;4919757;29;19911;-93
2023/03/22 01:42:59;;;;;;;;;;;;;;;;;;4935658;29;19961;-93
2023/03/22 01:45:25;;;;;;;;;;;;;;;;;;4919200;29;19922;-92
2023/03/22 01:47:51;;;;;;;;;;;;;;;;;;4918853;29;19927;-94
2023/03/22 01:50:17;;;;;;;;;;;;;;;;;;4935710;29;19933;-93
2023/03/22 01:52:43;;;;;;;;;;;;;;;;;;4919471;29;19923;-93
2023/03/22 01:55:09;;;;;;;;;;;;;;;;;;4935544;29;19927;-95
2023/03/22 01:57:36;;;;;;;;;;;;;;;;;;4919959;29;20243;-93
2023/03/22 02:00:07;;;;;;;;;;;;;;;;;;4919496;29;19923;-95
2023/03/22 02:02:33;;;;;;;;;;;;;;;;;;4920152;29;20247;-94
2023/03/22 02:04:59;;;;;;;;;;;;;;;;;;4919492;29;19922;-93
2023/03/22 02:07:26;;;;;;;;;;;;;;;;;;4922843;29;19923;-93
2023/03/22 02:09:52;;;;;;;;;;;;;;;;;;4923224;29;20314;-94
2023/03/22 02:12:18;;;;;;;;;;;;;;;;;;4923815;29;20278;-95
2023/03/22 02:14:44;;;;;;;;;;;;;;;;;;4922801;29;19973;-94
2023/03/22 02:17:10;;;;;;;;;;;;;;;;;;4922824;29;19922;-92
2023/03/22 02:19:36;;;;;;;;;;;;;;;;;;4922850;29;19923;-94
2023/03/22 02:22:02;;;;;;;;;;;;;;;;;;4923272;29;19930;-94
2023/03/22 02:24:28;;;;;;;;;;;;;;;;;;4923075;29;19923;-93
2023/03/22 02:26:54;;;;;;;;;;;;;;;;;;4922049;29;20078;-93
2023/03/22 02:29:21;;;;;;;;;;;;;;;;;;4922252;29;19922;-94
2023/03/22 02:31:47;;;;;;;;;;;;;;;;;;4922803;29;19929;-93
2023/03/22 02:34:14;;;;;;;;;;;;;;;;;;4922338;29;20365;-94
2023/03/22 02:36:41;;;;;;;;;;;;;;;;;;4922346;29;20362;-94
2023/03/22 02:39:07;;;;;;;;;;;;;;;;;;4922808;29;19926;-92
2023/03/22 02:41:33;;;;;;;;;;;;;;;;;;4922358;29;19923;-92
2023/03/22 02:43:59;;;;;;;;;;;;;;;;;;4922061;29;20021;-93
2023/03/22 02:46:25;;;;;;;;;;;;;;;;;;4922661;29;19965;-92
2023/03/22 02:48:51;;;;;;;;;;;;;;;;;;4922782;29;20283;-93
2023/03/22 02:51:17;;;;;;;;;;;;;;;;;;4922086;29;20059;-93
2023/03/22 02:53:43;;;;;;;;;;;;;;;;;;4921931;29;19933;-93
2023/03/22 02:56:09;;;;;;;;;;;;;;;;;;4922063;29;19979;-94
2023/03/22 02:58:34;;;;;;;;;;;;;;;;;;4922201;29;20017;-92
2023/03/22 03:01:00;;;;;;;;;;;;;;;;;;4922403;29;19966;-92
2023/03/22 03:03:28;;;;;;;;;;;;;;;;;;4922045;29;19926;-92
2023/03/22 03:05:54;;;;;;;;;;;;;;;;;;4922050;29;19923;-91
2023/03/22 03:08:20;;;;;;;;;;;;;;;;;;4921658;29;19929;-93
2023/03/22 03:10:46;;;;;;;;;;;;;;;;;;4922093;29;19981;-93
2023/03/22 03:13:12;;;;;;;;;;;;;;;;;;4921952;29;19922;-94
2023/03/22 03:15:41;;;;;;;;;;;;;;;;;;4921997;29;19933;-93
2023/03/22 03:18:08;;;;;;;;;;;;;;;;;;4921388;29;19934;-93
2023/03/22 03:20:35;;;;;;;;;;;;;;;;;;4923144;29;19927;-94
2023/03/22 03:23:01;;;;;;;;;;;;;;;;;;4922673;29;20009;-94
2023/03/22 03:25:27;;;;;;;;;;;;;;;;;;4922090;29;19985;-94
2023/03/22 03:27:57;;;;;;;;;;;;;;;;;;4922228;29;19927;-94
2023/03/22 03:30:23;;;;;;;;;;;;;;;;;;4922079;29;19922;-94
2023/03/22 03:32:48;;;;;;;;;;;;;;;;;;4923143;28;19922;-93
2023/03/22 03:35:21;;;;;;;;;;;;;;;;;;4924584;29;20293;-94
2023/03/22 03:37:46;;;;;;;;;;;;;;;;;;4924769;29;20409;-94
2023/03/22 03:40:12;;;;;;;;;;;;;;;;;;4924708;29;19937;-94
2023/03/22 03:42:38;;;;;;;;;;;;;;;;;;4925257;29;19930;-93
2023/03/22 03:45:04;;;;;;;;;;;;;;;;;;4925079;28;19937;-93
2023/03/22 03:47:30;;;;;;;;;;;;;;;;;;4924600;29;19922;-94
2023/03/22 03:49:56;;;;;;;;;;;;;;;;;;4924061;29;20037;-94
2023/03/22 03:52:23;;;;;;;;;;;;;;;;;;4924156;29;20137;-94
2023/03/22 03:54:49;;;;;;;;;;;;;;;;;;4924230;28;19984;-94
2023/03/22 03:57:15;;;;;;;;;;;;;;;;;;4924540;29;19923;-93
2023/03/22 03:59:41;;;;;;;;;;;;;;;;;;4924162;29;19922;-93
2023/03/22 04:02:07;;;;;;;;;;;;;;;;;;4924143;29;19997;-94
2023/03/22 04:04:33;;;;;;;;;;;;;;;;;;4924308;29;19922;-93
2023/03/22 04:06:59;;;;;;;;;;;;;;;;;;4924184;29;19946;-93
2023/03/22 04:09:26;;;;;;;;;;;;;;;;;;4923980;29;19926;-93
2023/03/22 04:11:52;;;;;;;;;;;;;;;;;;4923989;29;20374;-92
2023/03/22 04:14:18;;;;;;;;;;;;;;;;;;4924132;29;19933;-92
2023/03/22 04:16:44;;;;;;;;;;;;;;;;;;4924060;29;20289;-91
2023/03/22 04:19:10;;;;;;;;;;;;;;;;;;4924343;29;19929;-94
2023/03/22 04:21:36;;;;;;;;;;;;;;;;;;4923879;29;19922;-94
2023/03/22 04:24:02;;;;;;;;;;;;;;;;;;4923601;29;19954;-93
2023/03/22 04:26:27;;;;;;;;;;;;;;;;;;4923463;29;19922;-93
2023/03/22 04:28:54;;;;;;;;;;;;;;;;;;4923351;29;19923;-92
2023/03/22 04:31:19;;;;;;;;;;;;;;;;;;4923426;29;19993;-94
2023/03/22 04:33:47;;;;;;;;;;;;;;;;;;4923498;29;20367;-93
2023/03/22 04:36:16;;;;;;;;;;;;;;;;;;4923682;29;19941;-92
2023/03/22 04:38:42;;;;;;;;;;;;;;;;;;4923597;29;19972;-91
2023/03/22 04:41:08;;;;;;;;;;;;;;;;;;4938954;29;19922;-94
2023/03/22 04:43:34;;;;;;;;;;;;;;;;;;4923306;29;19922;-93
2023/03/22 04:46:00;;;;;;;;;;;;;;;;;;4923539;29;19990;-93
2023/03/22 04:48:26;;;;;;;;;;;;;;;;;;4939569;29;19922;-92
2023/03/22 04:50:53;;;;;;;;;;;;;;;;;;4923286;29;19922;-93
2023/03/22 04:53:18;;;;;;;;;;;;;;;;;;4923414;29;19930;-94
2023/03/22 04:55:44;;;;;;;;;;;;;;;;;;4923204;29;19938;-92
2023/03/22 04:58:10;;;;;;;;;;;;;;;;;;4923237;29;20417;-92
2023/03/22 05:00:37;;;;;;;;;;;;;;;;;;4923275;29;19988;-95
2023/03/22 05:03:02;;;;;;;;;;;;;;;;;;4923576;29;19968;-95
2023/03/22 05:05:28;;;;;;;;;;;;;;;;;;4923170;29;19926;-95
2023/03/22 05:07:55;;;;;;;;;;;;;;;;;;4923536;29;19969;-94
2023/03/22 05:10:21;;;;;;;;;;;;;;;;;;4922675;29;19930;-95
2023/03/22 05:12:47;;;;;;;;;;;;;;;;;;4922991;29;19926;-95
2023/03/22 05:15:13;;;;;;;;;;;;;;;;;;4924321;29;20290;-96
2023/03/22 05:17:39;;;;;;;;;;;;;;;;;;4923489;29;19949;-94
2023/03/22 05:20:09;;;;;;;;;;;;;;;;;;4924139;29;19923;-95
2023/03/22 05:22:39;;;;;;;;;;;;;;;;;;4923350;29;19973;-94
2023/03/22 05:25:05;;;;;;;;;;;;;;;;;;4923206;28;20393;-95
2023/03/22 05:27:33;;;;;;;;;;;;;;;;;;4923596;29;19928;-92
2023/03/22 05:29:59;;;;;;;;;;;;;;;;;;4923396;29;19922;-94
2023/03/22 05:32:28;;;;;;;;;;;;;;;;;;4939198;29;19973;-95
2023/03/22 05:34:54;;;;;;;;;;;;;;;;;;4923109;28;19927;-92
2023/03/22 05:37:21;;;;;;;;;;;;;;;;;;4923562;29;19922;-95
2023/03/22 05:39:47;;;;;;;;;;;;;;;;;;4923394;28;20305;-95
2023/03/22 05:42:13;;;;;;;;;;;;;;;;;;4927109;29;19923;-96
2023/03/22 05:44:39;;;;;;;;;;;;;;;;;;4927767;29;19977;-96
2023/03/22 05:47:07;;;;;;;;;;;;;;;;;;4928335;29;19922;-95
2023/03/22 05:49:33;;;;;;;;;;;;;;;;;;4928724;29;20017;-96
2023/03/22 05:52:03;;;;;;;;;;;;;;;;;;4928342;29;19942;-95
2023/03/22 05:54:31;;;;;;;;;;;;;;;;;;4926844;29;19927;-96
2023/03/22 05:56:57;;;;;;;;;;;;;;;;;;4927527;29;20437;-95
2023/03/22 05:59:23;;;;;;;;;;;;;;;;;;4927049;29;19964;-95
2023/03/22 06:01:49;;;;;;;;;;;;;;;;;;4926908;29;20267;-94
2023/03/22 06:04:17;;;;;;;;;;;;;;;;;;4927200;29;19922;-96
2023/03/22 06:06:43;;;;;;;;;;;;;;;;;;4926526;29;19929;-96
2023/03/22 06:09:09;;;;;;;;;;;;;;;;;;4926455;29;20402;-94
2023/03/22 06:11:35;;;;;;;;;;;;;;;;;;4926488;29;20358;-90
2023/03/22 06:14:04;;;;;;;;;;;;;;;;;;4926559;29;19922;-95
2023/03/22 06:16:30;;;;;;;;;;;;;;;;;;4928500;29;19922;-93
2023/03/22 06:18:56;;;;;;;;;;;;;;;;;;4927362;29;19934;-93
2023/03/22 06:21:22;;;;;;;;;;;;;;;;;;4926006;29;19945;-92
2023/03/22 06:23:48;;;;;;;;;;;;;;;;;;4926440;29;19930;-94
2023/03/22 06:26:14;;;;;;;;;;;;;;;;;;4926148;29;19973;-92
2023/03/22 06:28:40;;;;;;;;;;;;;;;;;;4925718;29;19922;-92
2023/03/22 06:31:06;;;;;;;;;;;;;;;;;;4925799;29;19929;-92
2023/03/22 06:33:32;;;;;;;;;;;;;;;;;;4925565;29;19931;-93
2023/03/22 06:35:59;;;;;;;;;;;;;;;;;;4925081;29;20378;-93
2023/03/22 06:38:25;;;;;;;;;;;;;;;;;;4925638;29;19929;-94
2023/03/22 06:40:51;;;;;;;;;;;;;;;;;;4926490;29;19922;-92
2023/03/22 06:43:17;;;;;;;;;;;;;;;;;;4927419;29;19926;-90
2023/03/22 06:45:43;;;;;;;;;;;;;;;;;;4925319;29;20380;-90
2023/03/22 06:48:09;;;;;;;;;;;;;;;;;;4925657;29;20013;-91
2023/03/22 06:50:37;;;;;;;;;;;;;;;;;;4941261;29;19986;-93
2023/03/22 06:53:03;;;;;;;;;;;;;;;;;;4926179;29;20283;-92
2023/03/22 06:55:33;;;;;;;;;;;;;;;;;;4941049;29;19926;-91
2023/03/22 06:58:02;;;;;;;;;;;;;;;;;;4942884;29;19922;-92
2023/03/22 07:00:33;;;;;;;;;;;;;;;;;;4944253;29;19986;-92
2023/03/22 07:03:02;;;;;;;;;;;;;;;;;;4949045;29;20357;-91
2023/03/22 07:05:28;;;;;;;;;;;;;;;;;;4945721;29;20021;-92
2023/03/22 07:07:54;;;;;;;;;;;;;;;;;;4926443;29;19977;-93
2023/03/22 07:10:20;;;;;;;;;;;;;;;;;;4926592;29;19931;-90
2023/03/22 07:12:46;;;;;;;;;;;;;;;;;;4926273;29;19985;-92
2023/03/22 07:15:11;;;;;;;;;;;;;;;;;;4927328;29;20125;-92
2023/03/22 07:17:37;;;;;;;;;;;;;;;;;;4927328;29;19922;-93
2023/03/22 07:20:03;;;;;;;;;;;;;;;;;;4908648;29;20236;-93
2023/03/22 07:22:30;;;;;;;;;;;;;;;;;;4911486;29;19929;-92
2023/03/22 07:24:56;;;;;;;;;;;;;;;;;;4926747;28;19922;-92
2023/03/22 07:27:21;;;;;;;;;;;;;;;;;;4915318;29;20343;-93
2023/03/22 07:29:47;;;;;;;;;;;;;;;;;;4905869;29;20372;-93
2023/03/22 07:32:13;;;;;;;;;;;;;;;;;;4905145;29;19923;-94
2023/03/22 07:34:39;;;;;;;;;;;;;;;;;;4905900;29;19989;-92
2023/03/22 07:37:07;;;;;;;;;;;;;;;;;;4905969;29;19922;-92
2023/03/22 07:39:33;;;;;;;;;;;;;;;;;;4905633;29;19923;-93
2023/03/22 07:41:59;;;;;;;;;;;;;;;;;;4905329;29;20043;-94
2023/03/22 07:44:25;;;;;;;;;;;;;;;;;;4905650;29;19926;-95
2023/03/22 07:46:51;;;;;;;;;;;;;;;;;;4907323;29;20330;-92
2023/03/22 07:49:17;;;;;;;;;;;;;;;;;;4906500;29;19981;-92
2023/03/22 07:51:43;;;;;;;;;;;;;;;;;;4914155;29;19922;-93
2023/03/22 07:54:09;;;;;;;;;;;;;;;;;;4924863;29;19934;-92
2023/03/22 07:56:34;;;;;;;;;;;;;;;;;;4915553;29;19929;-93
2023/03/22 07:59:00;;;;;;;;;;;;;;;;;;4905092;29;19930;-93
2023/03/22 08:01:26;;;;;;;;;;;;;;;;;;4905410;29;20017;-94
2023/03/22 08:03:52;;;;;;;;;;;;;;;;;;4904655;29;19938;-91
2023/03/22 08:06:20;;;;;;;;;;;;;;;;;;4905214;29;19923;-93
2023/03/22 08:08:46;;;;;;;;;;;;;;;;;;4905154;29;20009;-94
2023/03/22 08:11:12;;;;;;;;;;;;;;;;;;4921040;29;20386;-92
2023/03/22 08:13:38;;;;;;;;;;;;;;;;;;4905078;29;19923;-93
2023/03/22 08:16:04;;;;;;;;;;;;;;;;;;4904909;29;19927;-93
2023/03/22 08:18:36;;;;;;;;;;;;;;;;;;4905033;29;19930;-92
2023/03/22 08:21:02;;;;;;;;;;;;;;;;;;4901747;29;20295;-92
2023/03/22 08:23:28;;;;;;;;;;;;;;;;;;4885401;29;20017;-93
2023/03/22 08:25:54;;;;;;;;;;;;;;;;;;4885769;29;19923;-93
2023/03/22 08:28:20;;;;;;;;;;;;;;;;;;4885196;29;19923;-93
2023/03/22 08:30:46;;;;;;;;;;;;;;;;;;4885773;29;19930;-92
2023/03/22 08:33:12;;;;;;;;;;;;;;;;;;4885154;29;19927;-92
2023/03/22 08:35:38;;;;;;;;;;;;;;;;;;4885016;29;19941;-93
2023/03/22 08:38:04;;;;;;;;;;;;;;;;;;4905918;29;19946;-93
2023/03/22 08:40:30;;;;;;;;;;;;;;;;;;4922109;29;19923;-91
2023/03/22 08:42:56;;;;;;;;;;;;;;;;;;4922814;29;20306;-91
2023/03/22 08:45:22;;;;;;;;;;;;;;;;;;4922525;29;19929;-92
2023/03/22 08:47:48;;;;;;;;;;;;;;;;;;4922593;29;20283;-92
2023/03/22 08:50:14;;;;;;;;;;;;;;;;;;4922636;29;20029;-92
2023/03/22 08:52:40;;;;;;;;;;;;;;;;;;4938298;29;20009;-92
2023/03/22 08:55:07;;;;;;;;;;;;;;;;;;4922226;28;20024;-93
2023/03/22 08:57:33;;;;;;;;;;;;;;;;;;4922801;29;19942;-92
2023/03/22 08:59:59;;;;;;;;;;;;;;;;;;4922431;29;19923;-92
2023/03/22 09:02:25;;;;;;;;;;;;;;;;;;4922273;29;19923;-93
2023/03/22 09:04:51;;;;;;;;;;;;;;;;;;4922460;28;20317;-91
2023/03/22 09:07:17;;;;;;;;;;;;;;;;;;4922076;29;19930;-92
2023/03/22 09:09:43;;;;;;;;;;;;;;;;;;4922409;29;20290;-90
2023/03/22 09:12:09;;;;;;;;;;;;;;;;;;4922707;29;19923;-91
2023/03/22 09:14:35;;;;;;;;;;;;;;;;;;4921724;28;20390;-91
2023/03/22 09:17:01;;;;;;;;;;;;;;;;;;4921459;29;20326;-91
2023/03/22 09:19:27;;;;;;;;;;;;;;;;;;4921657;29;20021;-91
2023/03/22 09:21:53;;;;;;;;;;;;;;;;;;4922025;29;20338;-91
2023/03/22 09:24:19;;;;;;;;;;;;;;;;;;4921896;29;20273;-90
2023/03/22 09:26:45;;;;;;;;;;;;;;;;;;4921609;29;19984;-91
2023/03/22 09:29:11;;;;;;;;;;;;;;;;;;4923415;29;20255;-93
2023/03/22 09:31:37;;;;;;;;;;;;;;;;;;4922458;29;19980;-91
2023/03/22 09:34:03;;;;;;;;;;;;;;;;;;4921176;29;19942;-92
2023/03/22 09:36:31;;;;;;;;;;;;;;;;;;4937437;29;19933;-93
2023/03/22 09:38:58;;;;;;;;;;;;;;;;;;4921503;29;20394;-91
2023/03/22 09:41:24;;;;;;;;;;;;;;;;;;4922044;29;19930;-92
2023/03/22 09:43:53;;;;;;;;;;;;;;;;;;4922418;29;19929;-92
2023/03/22 09:46:18;;;;;;;;;;;;;;;;;;4921988;29;19924;-91
2023/03/22 09:48:45;;;;;;;;;;;;;;;;;;4921316;29;20012;-91
2023/03/22 09:51:11;;;;;;;;;;;;;;;;;;4921597;29;19982;-91
2023/03/22 09:53:37;;;;;;;;;;;;;;;;;;4938021;29;20346;-91
2023/03/22 09:56:03;;;;;;;;;;;;;;;;;;4921394;29;19969;-93
2023/03/22 09:58:32;;;;;;;;;;;;;;;;;;4921788;29;20021;-91
2023/03/22 10:00:58;;;;;;;;;;;;;;;;;;4920963;29;19970;-94
2023/03/22 10:03:24;;;;;;;;;;;;;;;;;;4921341;29;19964;-90
2023/03/22 10:05:50;;;;;;;;;;;;;;;;;;4921780;29;19923;-91
2023/03/22 10:08:16;;;;;;;;;;;;;;;;;;4921349;29;20367;-93
2023/03/22 10:10:44;;;;;;;;;;;;;;;;;;4937661;29;19922;-93
2023/03/22 10:13:12;;;;;;;;;;;;;;;;;;4921854;29;19929;-90
2023/03/22 10:15:38;;;;;;;;;;;;;;;;;;4921446;29;20017;-90
2023/03/22 10:18:04;;;;;;;;;;;;;;;;;;4921377;29;20401;-91
2023/03/22 10:20:30;;;;;;;;;;;;;;;;;;4921137;29;19981;-92
2023/03/22 10:22:56;;;;;;;;;;;;;;;;;;4937187;29;19969;-89
2023/03/22 10:25:22;;;;;;;;;;;;;;;;;;4937284;29;19930;-92
2023/03/22 10:27:48;;;;;;;;;;;;;;;;;;4923925;29;19922;-92
2023/03/22 10:30:14;;;;;;;;;;;;;;;;;;4925275;29;19929;-91
2023/03/22 10:32:40;;;;;;;;;;;;;;;;;;4924478;29;20317;-91
2023/03/22 10:35:06;;;;;;;;;;;;;;;;;;4925306;28;20370;-93
2023/03/22 10:37:37;;;;;;;;;;;;;;;;;;4925074;29;20283;-92
2023/03/22 10:40:05;;;;;;;;;;;;;;;;;;4924915;29;19962;-93
2023/03/22 10:42:34;;;;;;;;;;;;;;;;;;4942869;29;20017;-91
2023/03/22 10:45:00;;;;;;;;;;;;;;;;;;4923668;28;19964;-92
2023/03/22 10:47:26;;;;;;;;;;;;;;;;;;4924507;29;19981;-90
2023/03/22 10:49:55;;;;;;;;;;;;;;;;;;4941186;29;19923;-90
2023/03/22 10:52:21;;;;;;;;;;;;;;;;;;4924842;29;19923;-93
2023/03/22 10:54:47;;;;;;;;;;;;;;;;;;4924849;28;19996;-93
2023/03/22 10:57:13;;;;;;;;;;;;;;;;;;4924828;29;19950;-92
2023/03/22 10:59:42;;;;;;;;;;;;;;;;;;4940175;29;20066;-91
2023/03/22 11:02:07;;;;;;;;;;;;;;;;;;4924982;29;19933;-91
2023/03/22 11:04:34;;;;;;;;;;;;;;;;;;4924286;29;19923;-90
2023/03/22 11:07:00;;;;;;;;;;;;;;;;;;4924425;29;19986;-90
2023/03/22 11:09:26;;;;;;;;;;;;;;;;;;4924319;29;19929;-92
2023/03/22 11:11:55;;;;;;;;;;;;;;;;;;4924218;29;19922;-90
2023/03/22 11:14:20;;;;;;;;;;;;;;;;;;4923767;29;19934;-90
2023/03/22 11:16:46;;;;;;;;;;;;;;;;;;4940219;29;20424;-91
2023/03/22 11:19:12;;;;;;;;;;;;;;;;;;4924055;29;19922;-90
2023/03/22 11:21:38;;;;;;;;;;;;;;;;;;4923977;29;20354;-90
2023/03/22 11:24:04;;;;;;;;;;;;;;;;;;4924192;29;19923;-90
2023/03/22 11:26:30;;;;;;;;;;;;;;;;;;4919971;29;20433;-90
2023/03/22 11:28:56;;;;;;;;;;;;;;;;;;4920879;29;19930;-91
2023/03/22 11:31:24;;;;;;;;;;;;;;;;;;4920376;29;19923;-91
2023/03/22 11:33:50;;;;;;;;;;;;;;;;;;4920380;29;19927;-90
2023/03/22 11:36:16;;;;;;;;;;;;;;;;;;4920246;29;20374;-91
2023/03/22 11:38:42;;;;;;;;;;;;;;;;;;4919410;29;19923;-91
2023/03/22 11:41:08;;;;;;;;;;;;;;;;;;4920358;29;19930;-91
2023/03/22 11:43:34;;;;;;;;;;;;;;;;;;4919921;29;19922;-90
2023/03/22 11:46:00;;;;;;;;;;;;;;;;;;4920084;29;19970;-91
2023/03/22 11:48:27;;;;;;;;;;;;;;;;;;4920148;29;19922;-91
2023/03/22 11:50:53;;;;;;;;;;;;;;;;;;4920157;29;19922;-89
2023/03/22 11:53:19;;;;;;;;;;;;;;;;;;4919870;29;19978;-90
2023/03/22 11:55:45;;;;;;;;;;;;;;;;;;4920116;29;19927;-90
2023/03/22 11:58:11;;;;;;;;;;;;;;;;;;4919934;29;20025;-91
2023/03/22 12:00:37;;;;;;;;;;;;;;;;;;4920532;29;19933;-91
2023/03/22 12:03:03;;;;;;;;;;;;;;;;;;4920648;29;19922;-93
2023/03/22 12:05:29;;;;;;;;;;;;;;;;;;4920395;29;19923;-93
2023/03/22 12:07:55;;;;;;;;;;;;;;;;;;4919474;29;20386;-92
2023/03/22 12:10:21;;;;;;;;;;;;;;;;;;4920195;29;20013;-89
2023/03/22 12:12:47;;;;;;;;;;;;;;;;;;4919837;29;20327;-88
2023/03/22 12:15:13;;;;;;;;;;;;;;;;;;4919190;29;19927;-90
2023/03/22 12:17:39;;;;;;;;;;;;;;;;;;4919523;29;19922;-90
2023/03/22 12:20:05;;;;;;;;;;;;;;;;;;4919895;29;19929;-91
2023/03/22 12:22:31;;;;;;;;;;;;;;;;;;4919938;29;19923;-90
2023/03/22 12:24:57;;;;;;;;;;;;;;;;;;4919611;29;19927;-90
2023/03/22 12:27:23;;;;;;;;;;;;;;;;;;4935261;29;20363;-90
2023/03/22 12:29:49;;;;;;;;;;;;;;;;;;4919502;29;19923;-90
2023/03/22 12:32:16;;;;;;;;;;;;;;;;;;4919884;29;19923;-92
2023/03/22 12:34:42;;;;;;;;;;;;;;;;;;4919629;29;19934;-92
2023/03/22 12:37:08;;;;;;;;;;;;;;;;;;4919542;29;19923;-92
2023/03/22 12:39:34;;;;;;;;;;;;;;;;;;4935521;29;20021;-92
2023/03/22 12:42:01;;;;;;;;;;;;;;;;;;4935125;29;19938;-92
2023/03/22 12:44:27;;;;;;;;;;;;;;;;;;4919671;29;19926;-92
2023/03/22 12:46:54;;;;;;;;;;;;;;;;;;4934619;29;19931;-93
2023/03/22 12:49:20;;;;;;;;;;;;;;;;;;4919675;29;20354;-89
2023/03/22 12:51:46;;;;;;;;;;;;;;;;;;4919546;29;20018;-93
2023/03/22 12:54:15;;;;;;;;;;;;;;;;;;4920486;29;20330;-91
2023/03/22 12:56:41;;;;;;;;;;;;;;;;;;4922432;29;19923;-91
2023/03/22 12:59:16;;;;;;;;;;;;;;;;;;4921823;29;19927;-94
2023/03/22 13:01:42;;;;;;;;;;;;;;;;;;4920180;29;19929;-93
2023/03/22 13:04:09;;;;;;;;;;;;;;;;;;4936644;29;19930;-93
2023/03/22 13:06:35;;;;;;;;;;;;;;;;;;4919570;29;19923;-93
2023/03/22 13:11:55;;;;;;;;;;;;;;;;;;4936072;29;19945;-94
2023/03/22 13:14:21;;;;;;;;;;;;;;;;;;4935316;29;20294;-94
2023/03/22 13:16:48;;;;;;;;;;;;;;;;;;4935660;29;19923;-93
2023/03/22 13:19:14;;;;;;;;;;;;;;;;;;4919789;29;20282;-93
2023/03/22 13:21:42;;;;;;;;;;;;;;;;;;4919851;29;19933;-95
2023/03/22 13:24:08;;;;;;;;;;;;;;;;;;4920112;29;20374;-94
2023/03/22 13:26:35;;;;;;;;;;;;;;;;;;4919618;29;19926;-92
2023/03/22 13:29:10;;;;;;;;;;;;;;;;;;4920315;29;19942;-93
2023/03/22 13:31:36;;;;;;;;;;;;;;;;;;4918975;29;19977;-93
2023/03/22 13:34:03;;;;;;;;;;;;;;;;;;4918812;29;19927;-93
2023/03/22 13:36:32;;;;;;;;;;;;;;;;;;4934708;29;19983;-93
2023/03/22 13:38:58;;;;;;;;;;;;;;;;;;4920210;29;19966;-95
2023/03/22 13:41:30;;;;;;;;;;;;;;;;;;4921974;29;19923;-93
2023/03/22 13:43:57;;;;;;;;;;;;;;;;;;4935507;29;20314;-94
2023/03/22 13:46:23;;;;;;;;;;;;;;;;;;4919915;29;19923;-94
2023/03/22 13:48:50;;;;;;;;;;;;;;;;;;4919617;29;19930;-92
2023/03/22 13:51:16;;;;;;;;;;;;;;;;;;4918576;29;19922;-92
2023/03/22 13:53:42;;;;;;;;;;;;;;;;;;4918450;29;19969;-91
2023/03/22 13:56:08;;;;;;;;;;;;;;;;;;4918372;29;20009;-92
2023/03/22 13:58:37;;;;;;;;;;;;;;;;;;4934801;29;19982;-91
2023/03/22 14:01:05;;;;;;;;;;;;;;;;;;4918212;29;21272;-90
2023/03/22 14:03:31;;;;;;;;;;;;;;;;;;4921544;29;19923;-90
2023/03/22 14:27:41;;;;;;;;;;;;;;;;;;4939790;29;19937;-91
2023/03/22 14:30:07;;;;;;;;;;;;;;;;;;4922461;29;20147;-94
2023/03/22 14:32:37;;;;;;;;;;;;;;;;;;4923079;29;19923;-94
2023/03/22 14:35:04;;;;;;;;;;;;;;;;;;4922558;29;19927;-94
2023/03/22 14:37:30;;;;;;;;;;;;;;;;;;4922944;29;19923;-93
2023/03/22 14:39:58;;;;;;;;;;;;;;;;;;4922875;29;19929;-93
2023/03/22 14:42:25;;;;;;;;;;;;;;;;;;4922584;29;19930;-93
2023/03/22 14:44:51;;;;;;;;;;;;;;;;;;4923065;29;19923;-93
2023/03/22 14:47:16;;;;;;;;;;;;;;;;;;4923119;29;19926;-93
2023/03/22 14:49:42;;;;;;;;;;;;;;;;;;4938613;29;20339;-94
2023/03/22 14:52:08;;;;;;;;;;;;;;;;;;4926349;29;20362;-92
2023/03/22 14:54:38;;;;;;;;;;;;;;;;;;4924822;29;20374;-93
2023/03/22 14:57:21;;;;;;;;;;;;;;;;;;4940361;29;19926;-92
2023/03/22 14:59:49;;;;;;;;;;;;;;;;;;4956305;29;20086;-92
2023/03/22 15:05:22;;;;;;;;;;;;;;;;;;5026040;23;20039;-92
2023/03/22 15:07:51;;;;;;;;;;;;;;;;;;4924864;29;19945;-92
2023/03/22 15:10:17;;;;;;;;;;;;;;;;;;4924491;29;20370;-92
2023/03/22 15:12:46;;;;;;;;;;;;;;;;;;4940583;28;19922;-92
2023/03/22 15:15:12;;;;;;;;;;;;;;;;;;4920001;29;19927;-92
2023/03/22 15:17:38;;;;;;;;;;;;;;;;;;4906241;29;19930;-93
2023/03/22 15:20:05;;;;;;;;;;;;;;;;;;4905753;29;20260;-93
2023/03/22 15:22:31;;;;;;;;;;;;;;;;;;4906006;29;19954;-92
2023/03/22 15:24:57;;;;;;;;;;;;;;;;;;4904767;29;19931;-92
2023/03/22 15:27:23;;;;;;;;;;;;;;;;;;4905826;29;19923;-92
2023/03/22 15:29:49;;;;;;;;;;;;;;;;;;4905792;29;19966;-92
2023/03/22 15:32:15;;;;;;;;;;;;;;;;;;4906330;29;19923;-92
2023/03/22 15:34:41;;;;;;;;;;;;;;;;;;4905469;29;19982;-91
2023/03/22 15:37:07;;;;;;;;;;;;;;;;;;4904523;29;20263;-90
2023/03/22 15:39:33;;;;;;;;;;;;;;;;;;4904732;29;19923;-92
2023/03/22 15:41:59;;;;;;;;;;;;;;;;;;4904893;29;19923;-88
2023/03/22 15:44:25;;;;;;;;;;;;;;;;;;4905739;29;20021;-91
2023/03/22 15:46:51;;;;;;;;;;;;;;;;;;4905825;29;20020;-89
2023/03/22 15:49:20;;;;;;;;;;;;;;;;;;4920433;29;19923;-88
2023/03/22 15:51:46;;;;;;;;;;;;;;;;;;4905165;29;19923;-89
2023/03/22 15:54:12;;;;;;;;;;;;;;;;;;4904696;29;19957;-89
2023/03/22 15:56:38;;;;;;;;;;;;;;;;;;4904554;29;19923;-89
2023/03/22 15:59:03;;;;;;;;;;;;;;;;;;4904724;29;19926;-89
2023/03/22 16:01:30;;;;;;;;;;;;;;;;;;4904994;29;19923;-90
2023/03/22 16:03:56;;;;;;;;;;;;;;;;;;4905244;29;19923;-89
2023/03/22 16:06:22;;;;;;;;;;;;;;;;;;4904361;29;19973;-89
2023/03/22 16:08:48;;;;;;;;;;;;;;;;;;4904472;29;19923;-89
2023/03/22 16:11:13;;;;;;;;;;;;;;;;;;4921796;29;19934;-88
2023/03/22 16:13:39;;;;;;;;;;;;;;;;;;4906311;29;19938;-89
2023/03/22 16:16:06;;;;;;;;;;;;;;;;;;4904984;29;19927;-88
2023/03/22 16:18:31;;;;;;;;;;;;;;;;;;4905561;29;20297;-90
2023/03/22 16:21:00;;;;;;;;;;;;;;;;;;4922214;29;19923;-90
2023/03/22 16:23:26;;;;;;;;;;;;;;;;;;4904099;29;20272;-90
2023/03/22 16:25:52;;;;;;;;;;;;;;;;;;4903422;29;19994;-89
2023/03/22 16:28:18;;;;;;;;;;;;;;;;;;4903977;29;19923;-90
2023/03/22 16:30:44;;;;;;;;;;;;;;;;;;4903586;29;19926;-90
2023/03/22 16:33:10;;;;;;;;;;;;;;;;;;4919706;29;20282;-90
2023/03/22 16:35:36;;;;;;;;;;;;;;;;;;4903428;29;19931;-90
2023/03/22 16:38:02;;;;;;;;;;;;;;;;;;4903567;29;20325;-90
2023/03/22 16:40:31;;;;;;;;;;;;;;;;;;4919394;29;19946;-90
2023/03/22 16:42:58;;;;;;;;;;;;;;;;;;4919792;29;19997;-91
2023/03/22 16:45:24;;;;;;;;;;;;;;;;;;4920307;29;19927;-92
2023/03/22 16:48:00;;;;;;;;;;;;;;;;;;4904387;29;19929;-92
2023/03/22 16:50:27;;;;;;;;;;;;;;;;;;4920068;29;20362;-91
2023/03/22 16:52:53;;;;;;;;;;;;;;;;;;4904318;29;19954;-92
2023/03/22 16:55:22;;;;;;;;;;;;;;;;;;4920006;29;19927;-91
2023/03/22 16:57:48;;;;;;;;;;;;;;;;;;4903633;29;19929;-92
2023/03/22 17:00:14;;;;;;;;;;;;;;;;;;4903273;29;20000;-92
2023/03/22 17:02:42;;;;;;;;;;;;;;;;;;4904208;29;19935;-92
2023/03/22 17:07:44;;;;;;;;;;;;;;;;;;5426894;23;19926;-90
2023/03/22 17:10:10;;;;;;;;;;;;;;;;;;4922028;29;19929;-92